Wingate, Texas
Current Conditions -  °F | °C
As of 12:58 PM on Friday 24 Oct 2014 (Local Time) from KDYS Reporting Station
Clear Clear  
Wind Chill: 83°   Ceiling: Unl
Heat Index: 83°   Visibility: 10mi
Dew Point: 60°   Wind: 8mph
Humidity: 46%   Direction: 220°SW
Pressure: 30.14"   Gusts: NA
Location:  32.04°N, 100.11°W
Report Text: KDYS 241758Z AUTO 22007KT 10SM CLR 28/16 A3014 RMK AO2 SLP169 T02830155 10285 20147 58007
Loading
Personal Weather Stations






























Interactive Weather Map
Tropical Storm Tracking
New forecast layout! Learn more

10-Day Weather Forecast

Advertisements
Track Severe Weather on mobile